Monday, June 25, 2018, 3:31 PM EDT

KFDK, Frederick, Frederick Municipal Airport

Location: Frederick, MD, United States Lat: 39.417
Local Time: 3:31 PM EDT (19:31 GMT) Lon: -77.374
Time Zone: US/Eastern Elev: 301 ft

Show me the last for .
Show Decoded

2018-06-25 14:47 METAR KFDK 251847Z 04004KT 10SM BKN050 28/16 A3011 =
2018-06-25 13:47 METAR KFDK 251747Z 31005KT 10SM BKN047 BKN055 28/14 A3012 =
2018-06-25 12:47 METAR KFDK 251647Z 33005KT 10SM SCT045 BKN050 28/15 A3011 =
2018-06-25 11:47 METAR KFDK 251547Z 01005KT 10SM SCT040 27/16 A3012 =
2018-06-25 10:47 METAR KFDK 251447Z 04005KT 10SM SKC 26/16 A3012 =
2018-06-25 08:48 METAR KFDK 251248Z 03008KT 10SM SKC 23/15 A3010 =
2018-06-25 07:47 METAR KFDK 251147Z 03006KT 10SM SCT023 OVC031 22/21 A3009 =
2018-06-25 06:45 METAR KFDK 251045Z AUTO 25003KT 10SM BKN050 21/21 A3008 RMK AO2 =
2018-06-25 06:25 METAR KFDK 251025Z AUTO 00000KT 10SM SCT050 21/21 A3007 RMK AO2 LTG DSNT E =
2018-06-25 06:05 METAR KFDK 251005Z AUTO 00000KT 10SM CLR 21/21 A3006 RMK AO2 LTG DSNT E =
2018-06-25 05:45 METAR KFDK 250945Z AUTO 12003KT 10SM CLR 20/20 A3005 RMK AO2 LTG DSNT E =
2018-06-25 05:25 METAR KFDK 250925Z AUTO 26004KT 10SM CLR 22/17 A3003 RMK AO2 =
2018-06-25 05:05 METAR KFDK 250905Z AUTO 29005KT 10SM CLR 22/17 A3002 RMK AO2 LTG DSNT E AND W =
2018-06-25 04:45 METAR KFDK 250845Z AUTO 27007KT 10SM CLR 22/17 A3001 RMK AO2 LTG DSNT W =
2018-06-25 04:25 METAR KFDK 250825Z AUTO 27005KT 10SM CLR 22/17 A2999 RMK AO2 =
2018-06-25 04:05 METAR KFDK 250805Z AUTO 27007KT 10SM CLR 22/17 A2999 RMK AO2 =
2018-06-25 03:45 METAR KFDK 250745Z AUTO 26006KT 10SM CLR 22/17 A2998 RMK AO2 LTG DSNT E =
2018-06-25 03:25 METAR KFDK 250725Z AUTO 29004KT 10SM SCT120 22/19 A2998 RMK AO2 =
2018-06-25 03:05 METAR KFDK 250705Z AUTO 30003KT 10SM SCT110 21/21 A2997 RMK AO2 =
2018-06-25 02:45 METAR KFDK 250645Z AUTO 29003KT 10SM BKN110 22/21 A2997 RMK AO2 LTG DSNT E =
2018-06-25 02:25 METAR KFDK 250625Z AUTO 27005KT 10SM BKN080 OVC110 22/21 A2997 RMK AO2 LTG DSNT
                 E =
2018-06-25 02:05 METAR KFDK 250605Z AUTO 25004KT 10SM OVC080 22/22 A2997 RMK AO2 LTG DSNT E =
2018-06-25 01:45 METAR KFDK 250545Z AUTO 25005KT 10SM SCT080 OVC090 22/22 A2996 RMK AO2 =
2018-06-25 01:25 METAR KFDK 250525Z AUTO 25005KT 10SM SCT070 OVC090 22/22 A2995 RMK AO2 =
2018-06-25 01:05 METAR KFDK 250505Z AUTO 24004KT 7SM OVC070 21/21 A2996 RMK AO2 =
2018-06-25 00:45 METAR KFDK 250445Z AUTO 15003KT 4SM BR BKN070 BKN080 21/21 A2996 RMK AO2 LTG
                 DSNT E =
2018-06-25 00:25 METAR KFDK 250425Z AUTO 23003KT 7SM SCT070 SCT100 20/20 A2995 RMK AO2 =
2018-06-25 00:05 METAR KFDK 250405Z AUTO 00000KT 1 3/4SM BR SCT003 BKN100 21/21 A2994 RMK AO2 =
2018-06-24 23:45 METAR KFDK 250345Z AUTO 00000KT 1/2SM FG BKN003 21/21 A2994 RMK AO2 =
2018-06-24 23:25 METAR KFDK 250325Z AUTO 00000KT 3SM BR CLR 21/21 A2995 RMK AO2 =
2018-06-24 23:05 METAR KFDK 250305Z AUTO 00000KT 1 1/4SM BR VV007 21/21 A2995 RMK AO2 =
2018-06-24 22:45 METAR KFDK 250245Z AUTO 00000KT 3SM BR CLR 21/21 A2995 RMK AO2 =
2018-06-24 22:25 METAR KFDK 250225Z AUTO 00000KT 7SM CLR 22/22 A2995 RMK AO2 LTG DSNT E =
2018-06-24 22:05 METAR KFDK 250205Z AUTO 03003KT 10SM CLR 22/22 A2995 RMK AO2 =
2018-06-24 21:45 METAR KFDK 250145Z AUTO 36004KT 7SM CLR 22/22 A2994 RMK AO2 LTG DSNT E =
2018-06-24 21:25 METAR KFDK 250125Z AUTO 00000KT 5SM BR CLR 22/22 A2993 RMK AO2 =
2018-06-24 21:05 METAR KFDK 250105Z AUTO 00000KT 7SM CLR 22/22 A2993 RMK AO2 =
2018-06-24 20:55 METAR KFDK 250055Z 00000KT 10SM SCT110 23/23 A2992 =
2018-06-24 19:48 METAR KFDK 242348Z 01003KT 10SM SKC 26/21 A2990 RMK TCU DSNT SE =
2018-06-24 18:48 METAR KFDK 242248Z 00000KT 7SM VCTS-RA SCT034 SCT055 24/21 A2988 RMK TS SE MOV E
                 =
2018-06-24 18:05 METAR KFDK 242205Z 23012KT 10SM VCTS BKN080 29/20 A2985 RMK TS W MOV E =
2018-06-24 17:48 METAR KFDK 242148Z 22014G18KT 10SM SKC 30/20 A2984 RMK LTG DSNT N W TCU N THRU W
                 =
2018-06-24 16:48 METAR KFDK 242048Z 21010G16KT 10SM SKC 29/20 A2986 =
2018-06-24 15:47 METAR KFDK 241947Z 21016G22KT 10SM SCT040 31/20 A2988 =

Support USWX by starting your Amazon purchase here.